Cromwell, Washington
Current Conditions -  °F | °C
As of 12:53 PM on Wednesday 17 Dec 2014 (Local Time) from KTIW Reporting Station
Light Rain Light Rain  
Wind Chill:   Ceiling: 700
Heat Index:   Visibility: 10mi
Dew Point:   Wind: 0mph
Humidity: 93%   Direction: NA
Pressure: 29.84"   Gusts: NA
Location:  47.2986°N, 122.616°W
Report Text: KTIW 172053Z 00000KT 10SM -RA BKN007 OVC055 07/06 A2984 RMK AO2 RAB49 SLP106 P0000 60000 T00720061 50002
Loading
Personal Weather Stations






























Interactive Weather Map New forecast layout! Learn more

10-Day Weather Forecast

Advertisements
Track Severe Weather on mobile